Airfield :
LOGIN :

Register | Disclaimer

   EN    FR    IT 

 










Legend :    VFR   Marginal VFR   IFR   Intensive IFR   Very Intensive IFR
Visi :
Ceiling :
>= 8 km
>= 3000ft
5 to 8 km
1000 to 3000 ft
1500m to 5 km
500 to 1000 ft
800 to 1500m
200 to 500 ft
< 800m
< 200 ft
Symbols :   Thunderstorms  Fog  Heavy snow  Heavy precipitations  Wind > 20 kt
SIGMETs :     Misc.  Thunderstorms  Icing  Turbulence  Mountain Waves  Volcanic Ashes






- Airport Elevation : 327 ft
- IATA code : BHX


EGBB - Birmingham

CURRENT METAR :
  • 271250Z 25011G22KT 210V290 9999 VCSH BKN039TCU 15/09 Q1009

EXPIRED METARs :
  • 271220Z 25009KT 210V290 9999 4800N VCSH BKN036TCU 15/08 Q1008
  • 271150Z 23013KT 180V280 9999 BKN032 14/08 Q1008
  • 271120Z 25011KT 210V290 9999 BKN030 15/09 Q1007
  • 271050Z 25011KT 200V280 9999 SCT031 14/09 Q1007
  • 271020Z 26011KT 9999 SCT024 14/09 Q1006

TAF TAF EGBB
Valid from the 27 at 12:00 until the 28 at 12:00 UTC


271055Z 2712/2812 27012KT 9999 SCT030
PROB30
TEMPO 2712/2719 26015G25KT 4000 +SHRA
BECMG 2717/2720 20007KT
PROB30
TEMPO 2809/2812 26015G25KT 8000 SHRA
ATIS : +44 121 780 0910



MET'MAP, your aeronautical weather chart ! - Copyright ORBIFLY December 2007 - Disclaimer

ORBIFLY MET'MAP TEAM :

Programming & Development : Alexandra Zaïnal
Concept & original design : Baudouin d'Aumeries
Assistance for programming : Marc-Olivier Méhu
Technical & hardware support : Manuel Goepfert

Contact : metmap@orbifly.com




SOURCES & CREDITS :

   NOAA